KFY1953 SBGL-EHAM
Flight info
| Callsign | KFY1953 |
|---|---|
| Flight time | N/A |
| Altitude | 35000 |
| Route | DAKDA UZ4 ORBAD/N0496F370 UZ4 SLI DCT 01N044W 05N044W 11N045W 15N044W/M085F370 20N043W/M085F390 25N039W 30N036W 35N032W 40N027W 45N020W/M085F410 DCT OMOKO DCT GUNSO DCT GAPLI/N0489F410 DCT GAJIT DCT ENHAQ M197 REDFA |
| Aircraft | A359/H-SDE2E3GHIJ3J4J5LM1ORWXY/LB1D1 |
Departure
| Time | N/A |
|---|---|
| Airport | Rio Galeão – Tom Jobim International Airport (SBGL) |
Arrival
| Time | 2026-05-05 21:29 |
|---|---|
| Airport | Amsterdam Airport Schiphol (EHAM) |
| Time | Latitude | Longitude | Altitude | Speed | Heading |
|---|---|---|---|---|---|
| 2026-05-05 21:29 | 52.31300 | 4.75835 | 4 ft | 0 kts | 266° |
| 2026-05-05 21:46 | 52.31300 | 4.75839 | 31 ft | 2 kts | 266° |
| 2026-05-05 21:47 | 52.31302 | 4.75881 | 5 ft | 4 kts | 266° |
| 2026-05-05 21:47 | 52.31301 | 4.75921 | 6 ft | 4 kts | 304° |
| 2026-05-05 21:47 | 52.31282 | 4.75938 | 7 ft | 4 kts | 355° |
| 2026-05-05 21:47 | 52.31263 | 4.75940 | 4 ft | 0 kts | 356° |
| 2026-05-05 21:52 | 52.31419 | 4.75924 | 4 ft | 14 kts | 356° |
| 2026-05-05 21:52 | 52.31504 | 4.75873 | 4 ft | 13 kts | 306° |
| 2026-05-05 21:52 | 52.31519 | 4.75727 | 5 ft | 14 kts | 273° |
| 2026-05-05 21:53 | 52.31521 | 4.75566 | 4 ft | 15 kts | 271° |
| 2026-05-05 21:53 | 52.31514 | 4.75395 | 3 ft | 16 kts | 264° |
| 2026-05-05 21:53 | 52.31504 | 4.75211 | 3 ft | 17 kts | 265° |
| 2026-05-05 21:53 | 52.31495 | 4.75019 | 4 ft | 17 kts | 267° |
| 2026-05-05 21:54 | 52.31489 | 4.74819 | 4 ft | 18 kts | 268° |
| 2026-05-05 21:54 | 52.31482 | 4.74611 | 4 ft | 19 kts | 266° |
| 2026-05-05 21:54 | 52.31476 | 4.74407 | 4 ft | 16 kts | 272° |
| 2026-05-05 21:54 | 52.31540 | 4.74303 | 4 ft | 13 kts | 352° |
| 2026-05-05 21:55 | 52.31622 | 4.74299 | 7 ft | 11 kts | 359° |
| 2026-05-05 21:55 | 52.31703 | 4.74304 | 6 ft | 14 kts | 4° |
| 2026-05-05 21:55 | 52.31818 | 4.74316 | 1 ft | 19 kts | 4° |
| 2026-05-05 21:55 | 52.31961 | 4.74328 | 0 ft | 22 kts | 355° |
| 2026-05-05 21:56 | 52.32034 | 4.74189 | 0 ft | 14 kts | 274° |
| 2026-05-05 21:56 | 52.32039 | 4.74004 | 1 ft | 18 kts | 272° |
| 2026-05-05 21:56 | 52.32046 | 4.73793 | 6 ft | 19 kts | 274° |
| 2026-05-05 21:56 | 52.32056 | 4.73554 | 7 ft | 23 kts | 274° |
| 2026-05-05 21:57 | 52.32124 | 4.73313 | 6 ft | 26 kts | 315° |
| 2026-05-05 21:57 | 52.32262 | 4.73104 | 3 ft | 29 kts | 319° |
| 2026-05-05 21:57 | 52.32420 | 4.72888 | 3 ft | 30 kts | 320° |
| 2026-05-05 21:57 | 52.32582 | 4.72658 | 3 ft | 31 kts | 319° |
| 2026-05-05 21:58 | 52.32734 | 4.72421 | 6 ft | 29 kts | 314° |
| 2026-05-05 21:58 | 52.32871 | 4.72162 | 3 ft | 32 kts | 310° |
| 2026-05-05 21:58 | 52.33020 | 4.71889 | 4 ft | 33 kts | 311° |
| 2026-05-05 21:58 | 52.33137 | 4.71613 | 5 ft | 27 kts | 283° |
| 2026-05-05 21:59 | 52.33041 | 4.71364 | 4 ft | 29 kts | 222° |
| 2026-05-05 21:59 | 52.32894 | 4.71145 | 3 ft | 20 kts | 229° |
| 2026-05-05 21:59 | 52.32869 | 4.71059 | 2 ft | 0 kts | 256° |
| 2026-05-05 22:00 | 52.32866 | 4.71028 | 2 ft | 8 kts | 260° |
| 2026-05-05 22:00 | 52.32896 | 4.70900 | 3 ft | 17 kts | 333° |
| 2026-05-05 22:01 | 52.32945 | 4.70885 | 1 ft | 0 kts | 356° |
| 2026-05-05 22:01 | 52.32993 | 4.70887 | 0 ft | 29 kts | 3° |
| 2026-05-05 22:01 | 52.33396 | 4.70939 | 2 ft | 85 kts | 4° |
| 2026-05-05 22:01 | 52.34152 | 4.71014 | -1 ft | 132 kts | 3° |
| 2026-05-05 22:02 | 52.35199 | 4.71084 | 161 ft | 158 kts | 3° |
| 2026-05-05 22:02 | 52.36275 | 4.71148 | 733 ft | 154 kts | 6° |
| 2026-05-05 22:02 | 52.37366 | 4.71263 | 1166 ft | 165 kts | 7° |
| 2026-05-05 22:02 | 52.38592 | 4.71401 | 1387 ft | 188 kts | 6° |
| 2026-05-05 22:03 | 52.39939 | 4.71541 | 1683 ft | 205 kts | 6° |
| 2026-05-05 22:03 | 52.41437 | 4.71684 | 1928 ft | 225 kts | 5° |
| 2026-05-05 22:03 | 52.43031 | 4.71397 | 2443 ft | 238 kts | 343° |
| 2026-05-05 22:03 | 52.44425 | 4.69853 | 3042 ft | 248 kts | 321° |
| 2026-05-05 22:04 | 52.45638 | 4.67795 | 3666 ft | 255 kts | 314° |
| 2026-05-05 22:04 | 52.46501 | 4.65212 | 4247 ft | 265 kts | 290° |
| 2026-05-05 22:04 | 52.46730 | 4.62179 | 4861 ft | 271 kts | 274° |
| 2026-05-05 22:04 | 52.46742 | 4.59063 | 5476 ft | 274 kts | 273° |
| 2026-05-05 22:05 | 52.46633 | 4.55920 | 6123 ft | 279 kts | 262° |
| 2026-05-05 22:05 | 52.45861 | 4.53006 | 6759 ft | 283 kts | 233° |
| 2026-05-05 22:05 | 52.44371 | 4.50880 | 7395 ft | 286 kts | 213° |
| 2026-05-05 22:05 | 52.42747 | 4.49021 | 8127 ft | 285 kts | 221° |
| 2026-05-05 22:06 | 52.41501 | 4.46482 | 8731 ft | 287 kts | 241° |
| 2026-05-05 22:06 | 52.40534 | 4.43608 | 9398 ft | 289 kts | 244° |
| 2026-05-05 22:06 | 52.39595 | 4.40690 | 10084 ft | 291 kts | 243° |
| 2026-05-05 22:06 | 52.38643 | 4.37737 | 10439 ft | 305 kts | 243° |
| 2026-05-05 22:07 | 52.37623 | 4.34587 | 10706 ft | 321 kts | 243° |
| 2026-05-05 22:07 | 52.36545 | 4.31275 | 10973 ft | 337 kts | 243° |
| 2026-05-05 22:07 | 52.35410 | 4.27823 | 11238 ft | 352 kts | 241° |
| 2026-05-05 22:07 | 52.34195 | 4.24224 | 11497 ft | 367 kts | 240° |
| 2026-05-05 22:08 | 52.32949 | 4.20509 | 11821 ft | 377 kts | 239° |
| 2026-05-05 22:08 | 52.30452 | 4.13941 | 12760 ft | 385 kts | 231° |
| 2026-05-05 22:08 | 52.28803 | 4.10477 | 13290 ft | 388 kts | 230° |
| 2026-05-05 22:09 | 52.27121 | 4.07002 | 13851 ft | 391 kts | 230° |
| 2026-05-05 22:09 | 52.25435 | 4.03503 | 14353 ft | 393 kts | 230° |
| 2026-05-05 22:09 | 52.23740 | 3.99978 | 14861 ft | 396 kts | 230° |
| 2026-05-05 22:09 | 52.22037 | 3.96435 | 15329 ft | 399 kts | 230° |
| 2026-05-05 22:10 | 52.20305 | 3.92833 | 15709 ft | 405 kts | 230° |
| 2026-05-05 22:10 | 52.18585 | 3.89252 | 16216 ft | 406 kts | 230° |